Kathy Jeanne — WDE2421 — position and weather

sailwx.info

Track history (hours):
 
Tides and Currents Weather Stations Pressure Air Temp Water Temp Dewpoint Dewpoint Depression Visibility Wind Speed Wind Dir Waves Ship Positions

Kathy Jeanne

Owner: MESITICH, RONNIE C, TERMINAL ISLAND, CA. More information available from US FCC via Universal Licensing System and Coast Guard Vessel Documentation Center.

Last reported at 2018-Feb-15 23:55 UTC. Time now 2018-Feb-21 06:56 UTC.
Position N 33°20' W 118°29'.

Length 21 m.

Type: Fishing. MMSI: 367778000.

Date/timePositionNaut miles runAvg speedWind from/ knotsBaromVisibWave heightAir tempDewpointWater temp
2018-Feb-15 23:55N 33°20' W 118°29'0 0.0
2018-Feb-15 23:18N 33°20' W 118°29'26 1.0
2018-Feb-14 20:50N 33°44' W 118°16'0 0.6
2018-Feb-14 20:18N 33°44' W 118°16'0 0.0
2018-Feb-14 20:00N 33°44' W 118°16'0 0.0
2018-Feb-14 19:21N 33°44' W 118°16'0 0.0
2018-Feb-14 18:57N 33°44' W 118°16'0 0.0
2018-Feb-14 18:30N 33°44' W 118°16'0 0.0
2018-Feb-14 17:57N 33°44' W 118°16'0 0.0
2018-Feb-14 17:30N 33°44' W 118°16'0 0.0
2018-Feb-14 17:00N 33°44' W 118°16'0 0.0
2018-Feb-14 16:27N 33°44' W 118°16'0 0.0
2018-Feb-14 16:00N 33°44' W 118°16'0 0.1
2018-Feb-14 15:27N 33°44' W 118°16'0 0.0
2018-Feb-14 15:00N 33°44' W 118°16'0 0.0
2018-Feb-14 14:30N 33°44' W 118°16'0 0.0
2018-Feb-14 14:00N 33°44' W 118°16'0 0.0
2018-Feb-14 13:30N 33°44' W 118°16'0 0.7
2018-Feb-14 13:00N 33°44' W 118°16'2 0.2
2018-Feb-13 22:23N 33°42' W 118°17'2 6.4
2018-Feb-13 22:00N 33°44' W 118°16'0 0.7
2018-Feb-13 21:30N 33°44' W 118°16'0 0.0
2018-Feb-13 21:00N 33°44' W 118°16'0 0.0
2018-Feb-13 20:30N 33°44' W 118°16'0 0.0
2018-Feb-13 20:00N 33°44' W 118°16'0 0.0
2018-Feb-13 19:30N 33°44' W 118°16'0 0.0
2018-Feb-13 19:00N 33°44' W 118°16'0 0.0
2018-Feb-13 18:30N 33°44' W 118°16'0 0.0
2018-Feb-13 18:00N 33°44' W 118°16'0 0.0
2018-Feb-13 17:30N 33°44' W 118°16'0 0.0
2018-Feb-13 17:00N 33°44' W 118°16'0 0.0
2018-Feb-13 16:30N 33°44' W 118°16'0 0.0
2018-Feb-13 16:00N 33°44' W 118°16'23 0.7
2018-Feb-12 04:20N 33°28' W 118°36'13 2.1
2018-Feb-11 22:04N 33°37' W 118°25'1 8.6
2018-Feb-11 22:00N 33°37' W 118°24'6 8.8
2018-Feb-11 21:20N 33°40' W 118°18'3 8.8
2018-Feb-11 21:00N 33°42' W 118°16'2 4.3
2018-Feb-11 20:30N 33°44' W 118°16'0 0.0
2018-Feb-11 20:00N 33°44' W 118°16'0 0.0
2018-Feb-11 19:30N 33°44' W 118°16'0 0.0
2018-Feb-11 19:00N 33°44' W 118°16'0 0.0
2018-Feb-11 18:30N 33°44' W 118°16'0 0.0
2018-Feb-11 18:00N 33°44' W 118°16'0 0.0
2018-Feb-11 17:30N 33°44' W 118°16'0 0.0
2018-Feb-11 17:00N 33°44' W 118°16'0 0.0
2018-Feb-11 16:28N 33°44' W 118°16'0 0.0
2018-Feb-11 15:58N 33°44' W 118°16'0 0.0
2018-Feb-11 15:28N 33°44' W 118°16'0 0.0
2018-Feb-11 01:42N 33°44' W 118°16'0 0.0
2018-Feb-11 01:30N 33°44' W 118°16'0 0.0
2018-Feb-11 01:00N 33°44' W 118°16'0 0.0
2018-Feb-11 00:30N 33°44' W 118°16'0 0.0
2018-Feb-11 00:00N 33°44' W 118°16'0 0.0
2018-Feb-10 23:30N 33°44' W 118°16'0 0.0
2018-Feb-10 23:00N 33°44' W 118°16'0 0.0
2018-Feb-10 22:30N 33°44' W 118°16'0 0.0
2018-Feb-10 22:00N 33°44' W 118°16'0 0.0
2018-Feb-10 21:30N 33°44' W 118°16'0 0.0
2018-Feb-10 21:00N 33°44' W 118°16'0 0.0
2018-Feb-10 20:30N 33°44' W 118°16'0 0.0
2018-Feb-10 20:00N 33°44' W 118°16'0 0.0
2018-Feb-10 19:30N 33°44' W 118°16'0 0.0
2018-Feb-10 19:00N 33°44' W 118°16'0 0.0
2018-Feb-10 18:30N 33°44' W 118°16'0 0.0
2018-Feb-10 18:00N 33°44' W 118°16'0 0.0
2018-Feb-10 17:30N 33°44' W 118°16'0 0.0
2018-Feb-10 17:00N 33°44' W 118°16'0 0.0
2018-Feb-10 16:30N 33°44' W 118°16'0 0.0
2018-Feb-10 16:00N 33°44' W 118°16'0 0.0
2018-Feb-10 15:30N 33°44' W 118°16'0 0.0
2018-Feb-10 15:00N 33°44' W 118°16'0 0.0
2018-Feb-10 14:15N 33°44' W 118°16'0 0.0
2018-Feb-10 01:42N 33°44' W 118°16'0 0.0
2018-Feb-10 01:30N 33°44' W 118°16'0 0.0
2018-Feb-10 01:00N 33°44' W 118°16'0 0.0
2018-Feb-10 00:27N 33°44' W 118°16'0 0.0
2018-Feb-10 00:00N 33°44' W 118°16'0 0.0
2018-Feb-09 23:27N 33°44' W 118°16'0 0.0
2018-Feb-09 22:57N 33°44' W 118°16'0 0.0
2018-Feb-09 22:45N 33°44' W 118°16'3 0.1
2018-Feb-07 21:06N 33°42' W 118°16'  
Track history (hours):
 
Tides and Currents Weather Stations Pressure Air Temp Water Temp Dewpoint Dewpoint Depression Visibility Wind Speed Wind Dir Waves Ship Positions

Kathy Jeanne

Owner: MESITICH, RONNIE C, TERMINAL ISLAND, CA. More information available from US FCC via Universal Licensing System and Coast Guard Vessel Documentation Center.

Last reported at 2018-Feb-15 23:55 UTC. Time now 2018-Feb-21 06:56 UTC.
Position N 33°20' W 118°29'.

Length 21 m.

Type: Fishing. MMSI: 367778000.

Date/timePositionNaut miles runAvg speedWind from/ knotsBaromVisibWave heightAir tempDewpointWater temp
2018-Feb-15 23:55N 33°20' W 118°29'0 0.0
2018-Feb-15 23:18N 33°20' W 118°29'26 1.0
2018-Feb-14 20:50N 33°44' W 118°16'0 0.6
2018-Feb-14 20:18N 33°44' W 118°16'0 0.0
2018-Feb-14 20:00N 33°44' W 118°16'0 0.0
2018-Feb-14 19:21N 33°44' W 118°16'0 0.0
2018-Feb-14 18:57N 33°44' W 118°16'0 0.0
2018-Feb-14 18:30N 33°44' W 118°16'0 0.0
2018-Feb-14 17:57N 33°44' W 118°16'0 0.0
2018-Feb-14 17:30N 33°44' W 118°16'0 0.0
2018-Feb-14 17:00N 33°44' W 118°16'0 0.0
2018-Feb-14 16:27N 33°44' W 118°16'0 0.0
2018-Feb-14 16:00N 33°44' W 118°16'0 0.1
2018-Feb-14 15:27N 33°44' W 118°16'0 0.0
2018-Feb-14 15:00N 33°44' W 118°16'0 0.0
2018-Feb-14 14:30N 33°44' W 118°16'0 0.0
2018-Feb-14 14:00N 33°44' W 118°16'0 0.0
2018-Feb-14 13:30N 33°44' W 118°16'0 0.7
2018-Feb-14 13:00N 33°44' W 118°16'2 0.2
2018-Feb-13 22:23N 33°42' W 118°17'2 6.4
2018-Feb-13 22:00N 33°44' W 118°16'0 0.7
2018-Feb-13 21:30N 33°44' W 118°16'0 0.0
2018-Feb-13 21:00N 33°44' W 118°16'0 0.0
2018-Feb-13 20:30N 33°44' W 118°16'0 0.0
2018-Feb-13 20:00N 33°44' W 118°16'0 0.0
2018-Feb-13 19:30N 33°44' W 118°16'0 0.0
2018-Feb-13 19:00N 33°44' W 118°16'0 0.0
2018-Feb-13 18:30N 33°44' W 118°16'0 0.0
2018-Feb-13 18:00N 33°44' W 118°16'0 0.0
2018-Feb-13 17:30N 33°44' W 118°16'0 0.0
2018-Feb-13 17:00N 33°44' W 118°16'0 0.0
2018-Feb-13 16:30N 33°44' W 118°16'0 0.0
2018-Feb-13 16:00N 33°44' W 118°16'23 0.7
2018-Feb-12 04:20N 33°28' W 118°36'13 2.1
2018-Feb-11 22:04N 33°37' W 118°25'1 8.6
2018-Feb-11 22:00N 33°37' W 118°24'6 8.8
2018-Feb-11 21:20N 33°40' W 118°18'3 8.8
2018-Feb-11 21:00N 33°42' W 118°16'2 4.3
2018-Feb-11 20:30N 33°44' W 118°16'0 0.0
2018-Feb-11 20:00N 33°44' W 118°16'0 0.0
2018-Feb-11 19:30N 33°44' W 118°16'0 0.0
2018-Feb-11 19:00N 33°44' W 118°16'0 0.0
2018-Feb-11 18:30N 33°44' W 118°16'0 0.0
2018-Feb-11 18:00N 33°44' W 118°16'0 0.0
2018-Feb-11 17:30N 33°44' W 118°16'0 0.0
2018-Feb-11 17:00N 33°44' W 118°16'0 0.0
2018-Feb-11 16:28N 33°44' W 118°16'0 0.0
2018-Feb-11 15:58N 33°44' W 118°16'0 0.0
2018-Feb-11 15:28N 33°44' W 118°16'0 0.0
2018-Feb-11 01:42N 33°44' W 118°16'0 0.0
2018-Feb-11 01:30N 33°44' W 118°16'0 0.0
2018-Feb-11 01:00N 33°44' W 118°16'0 0.0
2018-Feb-11 00:30N 33°44' W 118°16'0 0.0
2018-Feb-11 00:00N 33°44' W 118°16'0 0.0
2018-Feb-10 23:30N 33°44' W 118°16'0 0.0
2018-Feb-10 23:00N 33°44' W 118°16'0 0.0
2018-Feb-10 22:30N 33°44' W 118°16'0 0.0
2018-Feb-10 22:00N 33°44' W 118°16'0 0.0
2018-Feb-10 21:30N 33°44' W 118°16'0 0.0
2018-Feb-10 21:00N 33°44' W 118°16'0 0.0
2018-Feb-10 20:30N 33°44' W 118°16'0 0.0
2018-Feb-10 20:00N 33°44' W 118°16'0 0.0
2018-Feb-10 19:30N 33°44' W 118°16'0 0.0
2018-Feb-10 19:00N 33°44' W 118°16'0 0.0
2018-Feb-10 18:30N 33°44' W 118°16'0 0.0
2018-Feb-10 18:00N 33°44' W 118°16'0 0.0
2018-Feb-10 17:30N 33°44' W 118°16'0 0.0
2018-Feb-10 17:00N 33°44' W 118°16'0 0.0
2018-Feb-10 16:30N 33°44' W 118°16'0 0.0
2018-Feb-10 16:00N 33°44' W 118°16'0 0.0
2018-Feb-10 15:30N 33°44' W 118°16'0 0.0
2018-Feb-10 15:00N 33°44' W 118°16'0 0.0
2018-Feb-10 14:15N 33°44' W 118°16'0 0.0
2018-Feb-10 01:42N 33°44' W 118°16'0 0.0
2018-Feb-10 01:30N 33°44' W 118°16'0 0.0
2018-Feb-10 01:00N 33°44' W 118°16'0 0.0
2018-Feb-10 00:27N 33°44' W 118°16'0 0.0
2018-Feb-10 00:00N 33°44' W 118°16'0 0.0
2018-Feb-09 23:27N 33°44' W 118°16'0 0.0
2018-Feb-09 22:57N 33°44' W 118°16'0 0.0
2018-Feb-09 22:45N 33°44' W 118°16'3 0.1
2018-Feb-07 21:06N 33°42' W 118°16'  

Dump ship's entire track history